sensor_id;sensor_type;location;lat;lon;timestamp;pressure;altitude;pressure_sealevel;temperature;humidity
52745;BME280;38637;49.984;20.426;2023-11-19T00:01:42;99913.41;;;4.57;78.39
52745;BME280;38637;49.984;20.426;2023-11-19T00:04:08;99914.22;;;4.58;78.84
52745;BME280;38637;49.984;20.426;2023-11-19T00:06:33;99922.75;;;4.55;78.35
52745;BME280;38637;49.984;20.426;2023-11-19T00:08:58;99932.94;;;4.53;79.02
52745;BME280;38637;49.984;20.426;2023-11-19T00:11:25;99923.16;;;4.58;79.40
52745;BME280;38637;49.984;20.426;2023-11-19T00:13:50;99916.31;;;4.63;80.14
52745;BME280;38637;49.984;20.426;2023-11-19T00:16:16;99910.50;;;4.66;80.34
52745;BME280;38637;49.984;20.426;2023-11-19T00:18:41;99901.97;;;4.69;80.37
52745;BME280;38637;49.984;20.426;2023-11-19T00:21:06;99902.56;;;4.71;80.08
52745;BME280;38637;49.984;20.426;2023-11-19T00:23:33;99900.47;;;4.73;80.51
52745;BME280;38637;49.984;20.426;2023-11-19T00:25:58;99900.06;;;4.76;80.20
52745;BME280;38637;49.984;20.426;2023-11-19T00:28:23;99897.97;;;4.71;80.30
52745;BME280;38637;49.984;20.426;2023-11-19T00:30:49;99899.88;;;4.64;80.20
52745;BME280;38637;49.984;20.426;2023-11-19T00:33:14;99904.22;;;4.58;80.15
52745;BME280;38637;49.984;20.426;2023-11-19T00:35:39;99886.13;;;4.52;80.10
52745;BME280;38637;49.984;20.426;2023-11-19T00:38:05;99889.91;;;4.51;79.79
52745;BME280;38637;49.984;20.426;2023-11-19T00:40:30;99890.72;;;4.52;80.60
52745;BME280;38637;49.984;20.426;2023-11-19T00:42:55;99893.63;;;4.57;80.32
52745;BME280;38637;49.984;20.426;2023-11-19T00:45:20;99876.75;;;4.61;79.99
52745;BME280;38637;49.984;20.426;2023-11-19T00:47:46;99878.00;;;4.59;80.81
52745;BME280;38637;49.984;20.426;2023-11-19T00:50:11;99879.69;;;4.60;80.58
52745;BME280;38637;49.984;20.426;2023-11-19T00:52:37;99864.09;;;4.55;80.50
52745;BME280;38637;49.984;20.426;2023-11-19T00:55:03;99863.50;;;4.53;80.60
52745;BME280;38637;49.984;20.426;2023-11-19T00:57:29;99857.84;;;4.55;80.44
52745;BME280;38637;49.984;20.426;2023-11-19T00:59:55;99850.16;;;4.52;80.18
52745;BME280;38637;49.984;20.426;2023-11-19T01:02:20;99850.97;;;4.52;80.75
52745;BME280;38637;49.984;20.426;2023-11-19T01:04:45;99843.91;;;4.51;81.41
52745;BME280;38637;49.984;20.426;2023-11-19T01:07:11;99844.75;;;4.52;81.38
52745;BME280;38637;49.984;20.426;2023-11-19T01:09:38;99838.09;;;4.48;81.08
52745;BME280;38637;49.984;20.426;2023-11-19T01:12:03;99828.31;;;4.47;81.05
52745;BME280;38637;49.984;20.426;2023-11-19T01:14:28;99834.13;;;4.44;81.13
52745;BME280;38637;49.984;20.426;2023-11-19T01:16:54;99832.28;;;4.44;81.28
52745;BME280;38637;49.984;20.426;2023-11-19T01:19:21;99820.63;;;4.37;81.98
52745;BME280;38637;49.984;20.426;2023-11-19T01:21:47;99819.81;;;4.30;82.32
52745;BME280;38637;49.984;20.426;2023-11-19T01:24:12;99816.09;;;4.24;82.90
52745;BME280;38637;49.984;20.426;2023-11-19T01:26:39;99816.50;;;4.21;82.89
52745;BME280;38637;49.984;20.426;2023-11-19T01:29:04;99816.50;;;4.14;83.13
52745;BME280;38637;49.984;20.426;2023-11-19T01:31:30;99819.00;;;4.16;83.23
52745;BME280;38637;49.984;20.426;2023-11-19T01:33:56;99816.91;;;4.18;83.70
52745;BME280;38637;49.984;20.426;2023-11-19T01:36:22;99809.22;;;4.22;83.99
52745;BME280;38637;49.984;20.426;2023-11-19T01:38:47;99815.25;;;4.24;84.34
52745;BME280;38637;49.984;20.426;2023-11-19T01:41:12;99822.31;;;4.25;83.29
52745;BME280;38637;49.984;20.426;2023-11-19T01:43:38;99822.97;;;4.20;82.92
52745;BME280;38637;49.984;20.426;2023-11-19T01:46:06;99818.59;;;4.26;83.54
52745;BME280;38637;49.984;20.426;2023-11-19T01:48:34;99816.28;;;4.29;83.58
52745;BME280;38637;49.984;20.426;2023-11-19T01:51:01;99811.06;;;4.34;84.29
52745;BME280;38637;49.984;20.426;2023-11-19T01:53:28;99803.41;;;4.38;83.90
52745;BME280;38637;49.984;20.426;2023-11-19T01:55:54;99792.16;;;4.41;83.52
52745;BME280;38637;49.984;20.426;2023-11-19T01:58:20;99779.88;;;4.45;82.80
52745;BME280;38637;49.984;20.426;2023-11-19T02:00:46;99782.34;;;4.47;82.82
52745;BME280;38637;49.984;20.426;2023-11-19T02:03:11;99785.69;;;4.42;82.83
52745;BME280;38637;49.984;20.426;2023-11-19T02:05:37;99779.63;;;4.47;83.14
52745;BME280;38637;49.984;20.426;2023-11-19T02:08:03;99778.81;;;4.46;82.13
52745;BME280;38637;49.984;20.426;2023-11-19T02:10:29;99786.72;;;4.48;82.72
52745;BME280;38637;49.984;20.426;2023-11-19T02:12:54;99775.69;;;4.49;82.51
52745;BME280;38637;49.984;20.426;2023-11-19T02:15:20;99764.03;;;4.49;82.60
52745;BME280;38637;49.984;20.426;2023-11-19T02:17:46;99761.34;;;4.49;82.52
52745;BME280;38637;49.984;20.426;2023-11-19T02:20:12;99763.22;;;4.48;82.60
52745;BME280;38637;49.984;20.426;2023-11-19T02:22:39;99760.28;;;4.50;82.68
52745;BME280;38637;49.984;20.426;2023-11-19T02:25:06;99757.19;;;4.46;82.38
52745;BME280;38637;49.984;20.426;2023-11-19T02:27:46;99767.41;;;4.44;82.82
52745;BME280;38637;49.984;20.426;2023-11-19T02:30:14;99751.59;;;4.41;83.02
52745;BME280;38637;49.984;20.426;2023-11-19T02:32:42;99753.03;;;4.37;83.39
52745;BME280;38637;49.984;20.426;2023-11-19T02:35:08;99743.28;;;4.36;83.20
52745;BME280;38637;49.984;20.426;2023-11-19T02:37:37;99733.28;;;4.36;83.43
52745;BME280;38637;49.984;20.426;2023-11-19T02:40:03;99735.81;;;4.38;83.85
52745;BME280;38637;49.984;20.426;2023-11-19T02:42:29;99727.28;;;4.41;83.06
52745;BME280;38637;49.984;20.426;2023-11-19T02:44:54;99707.28;;;4.42;82.89
52745;BME280;38637;49.984;20.426;2023-11-19T02:47:19;99713.09;;;4.46;82.82
52745;BME280;38637;49.984;20.426;2023-11-19T02:49:46;99703.50;;;4.50;82.85
52745;BME280;38637;49.984;20.426;2023-11-19T02:52:11;99706.84;;;4.52;82.26
52745;BME280;38637;49.984;20.426;2023-11-19T02:54:37;99709.09;;;4.55;82.79
52745;BME280;38637;49.984;20.426;2023-11-19T02:57:02;99709.50;;;4.58;82.79
52745;BME280;38637;49.984;20.426;2023-11-19T02:59:29;99694.34;;;4.57;82.07
52745;BME280;38637;49.984;20.426;2023-11-19T03:02:03;99688.72;;;4.52;80.79
52745;BME280;38637;49.984;20.426;2023-11-19T03:04:29;99696.66;;;4.47;81.21
52745;BME280;38637;49.984;20.426;2023-11-19T03:06:55;99696.66;;;4.47;81.36
52745;BME280;38637;49.984;20.426;2023-11-19T03:09:21;99683.16;;;4.47;82.19
52745;BME280;38637;49.984;20.426;2023-11-19T03:11:47;99676.53;;;4.36;82.49
52745;BME280;38637;49.984;20.426;2023-11-19T03:14:12;99667.38;;;4.31;82.58
52745;BME280;38637;49.984;20.426;2023-11-19T03:16:37;99658.25;;;4.32;82.73
52745;BME280;38637;49.984;20.426;2023-11-19T03:19:02;99659.28;;;4.31;83.76
52745;BME280;38637;49.984;20.426;2023-11-19T03:21:29;99643.91;;;4.25;83.37
52745;BME280;38637;49.984;20.426;2023-11-19T03:23:54;99639.38;;;4.19;84.33
52745;BME280;38637;49.984;20.426;2023-11-19T03:26:20;99645.38;;;4.27;84.23
52745;BME280;38637;49.984;20.426;2023-11-19T03:28:45;99628.53;;;4.32;84.58
52745;BME280;38637;49.984;20.426;2023-11-19T03:31:10;99625.19;;;4.30;83.90
52745;BME280;38637;49.984;20.426;2023-11-19T03:33:36;99633.50;;;4.28;84.30
52745;BME280;38637;49.984;20.426;2023-11-19T03:36:02;99627.28;;;4.28;83.74
52745;BME280;38637;49.984;20.426;2023-11-19T03:38:27;99616.47;;;4.28;83.83
52745;BME280;38637;49.984;20.426;2023-11-19T03:40:53;99623.72;;;4.34;84.17
52745;BME280;38637;49.984;20.426;2023-11-19T03:43:18;99613.53;;;4.36;83.81
52745;BME280;38637;49.984;20.426;2023-11-19T03:45:44;99615.78;;;4.39;83.77
52745;BME280;38637;49.984;20.426;2023-11-19T03:48:09;99622.03;;;4.40;83.53
52745;BME280;38637;49.984;20.426;2023-11-19T03:50:34;99621.97;;;4.46;83.32
52745;BME280;38637;49.984;20.426;2023-11-19T03:53:00;99613.84;;;4.53;83.50
52745;BME280;38637;49.984;20.426;2023-11-19T03:55:25;99616.34;;;4.54;83.62
52745;BME280;38637;49.984;20.426;2023-11-19T03:57:50;99618.81;;;4.56;83.88
52745;BME280;38637;49.984;20.426;2023-11-19T04:00:15;99605.47;;;4.61;83.39
52745;BME280;38637;49.984;20.426;2023-11-19T04:02:41;99599.00;;;4.62;83.35
52745;BME280;38637;49.984;20.426;2023-11-19T04:05:06;99595.06;;;4.65;83.32
52745;BME280;38637;49.984;20.426;2023-11-19T04:07:32;99578.63;;;4.66;83.28
52745;BME280;38637;49.984;20.426;2023-11-19T04:09:57;99573.81;;;4.68;82.79
52745;BME280;38637;49.984;20.426;2023-11-19T04:12:23;99572.34;;;4.72;83.34
52745;BME280;38637;49.984;20.426;2023-11-19T04:14:49;99560.47;;;4.73;83.26
52745;BME280;38637;49.984;20.426;2023-11-19T04:17:14;99553.59;;;4.71;82.92
52745;BME280;38637;49.984;20.426;2023-11-19T04:19:40;99555.28;;;4.72;82.35
52745;BME280;38637;49.984;20.426;2023-11-19T04:22:08;99554.22;;;4.73;82.35
52745;BME280;38637;49.984;20.426;2023-11-19T04:24:34;99562.97;;;4.75;82.74
52745;BME280;38637;49.984;20.426;2023-11-19T04:26:59;99562.97;;;4.75;83.00
52745;BME280;38637;49.984;20.426;2023-11-19T04:29:24;99560.03;;;4.76;83.08
52745;BME280;38637;49.984;20.426;2023-11-19T04:31:50;99546.72;;;4.75;82.69
52745;BME280;38637;49.984;20.426;2023-11-19T04:34:15;99524.84;;;4.76;82.58
52745;BME280;38637;49.984;20.426;2023-11-19T04:36:40;99524.66;;;4.78;83.18
52745;BME280;38637;49.984;20.426;2023-11-19T04:39:06;99521.31;;;4.76;82.41
52745;BME280;38637;49.984;20.426;2023-11-19T04:41:37;99506.34;;;4.73;82.32
52745;BME280;38637;49.984;20.426;2023-11-19T04:44:10;99509.69;;;4.75;82.57
52745;BME280;38637;49.984;20.426;2023-11-19T04:46:35;99512.38;;;4.75;82.13
52745;BME280;38637;49.984;20.426;2023-11-19T04:49:01;99510.50;;;4.76;82.38
52745;BME280;38637;49.984;20.426;2023-11-19T04:51:26;99502.38;;;4.76;82.35
52745;BME280;38637;49.984;20.426;2023-11-19T04:53:51;99499.69;;;4.76;82.21
52745;BME280;38637;49.984;20.426;2023-11-19T04:56:17;99481.56;;;4.76;82.33
52745;BME280;38637;49.984;20.426;2023-11-19T04:58:44;99475.53;;;4.74;81.99
52745;BME280;38637;49.984;20.426;2023-11-19T05:01:13;99476.59;;;4.73;82.06
52745;BME280;38637;49.984;20.426;2023-11-19T05:03:38;99490.56;;;4.70;81.41
52745;BME280;38637;49.984;20.426;2023-11-19T05:06:04;99487.88;;;4.70;82.09
52745;BME280;38637;49.984;20.426;2023-11-19T05:08:29;99488.47;;;4.72;82.29
52745;BME280;38637;49.984;20.426;2023-11-19T05:10:54;99472.84;;;4.74;81.88
52745;BME280;38637;49.984;20.426;2023-11-19T05:13:20;99465.56;;;4.75;81.88
52745;BME280;38637;49.984;20.426;2023-11-19T05:15:45;99470.97;;;4.75;81.80
52745;BME280;38637;49.984;20.426;2023-11-19T05:18:10;99470.13;;;4.74;82.26
52745;BME280;38637;49.984;20.426;2023-11-19T05:20:35;99471.81;;;4.75;82.02
52745;BME280;38637;49.984;20.426;2023-11-19T05:23:01;99474.50;;;4.75;81.50
52745;BME280;38637;49.984;20.426;2023-11-19T05:25:26;99458.88;;;4.77;81.58
52745;BME280;38637;49.984;20.426;2023-11-19T05:27:52;99460.53;;;4.78;82.05
52745;BME280;38637;49.984;20.426;2023-11-19T05:30:17;99466.97;;;4.77;81.20
52745;BME280;38637;49.984;20.426;2023-11-19T05:32:43;99472.41;;;4.77;81.62
52745;BME280;38637;49.984;20.426;2023-11-19T05:35:08;99469.47;;;4.79;81.51
52745;BME280;38637;49.984;20.426;2023-11-19T05:37:33;99467.84;;;4.78;81.69
52745;BME280;38637;49.984;20.426;2023-11-19T05:40:00;99474.66;;;4.80;81.98
52745;BME280;38637;49.984;20.426;2023-11-19T05:42:28;99481.75;;;4.81;81.94
52745;BME280;38637;49.984;20.426;2023-11-19T05:44:53;99469.03;;;4.82;81.46
52745;BME280;38637;49.984;20.426;2023-11-19T05:47:18;99477.16;;;4.82;81.45
52745;BME280;38637;49.984;20.426;2023-11-19T05:49:43;99476.34;;;4.81;81.50
52745;BME280;38637;49.984;20.426;2023-11-19T05:52:08;99464.69;;;4.81;81.04
52745;BME280;38637;49.984;20.426;2023-11-19T05:54:35;99480.06;;;4.80;81.86
52745;BME280;38637;49.984;20.426;2023-11-19T05:57:04;99470.94;;;4.81;81.76
52745;BME280;38637;49.984;20.426;2023-11-19T05:59:29;99470.94;;;4.81;81.41
52745;BME280;38637;49.984;20.426;2023-11-19T06:01:55;99470.09;;;4.81;81.33
52745;BME280;38637;49.984;20.426;2023-11-19T06:04:20;99457.41;;;4.81;81.83
52745;BME280;38637;49.984;20.426;2023-11-19T06:06:45;99451.16;;;4.81;81.78
52745;BME280;38637;49.984;20.426;2023-11-19T06:09:11;99446.56;;;4.81;81.48
52745;BME280;38637;49.984;20.426;2023-11-19T06:11:37;99442.81;;;4.82;81.60
52745;BME280;38637;49.984;20.426;2023-11-19T06:14:03;99435.97;;;4.80;81.41
52745;BME280;38637;49.984;20.426;2023-11-19T06:16:30;99448.47;;;4.81;81.64
52745;BME280;38637;49.984;20.426;2023-11-19T06:18:55;99444.91;;;4.80;81.52
52745;BME280;38637;49.984;20.426;2023-11-19T06:21:21;99438.91;;;4.78;81.34
52745;BME280;38637;49.984;20.426;2023-11-19T06:23:46;99442.19;;;4.80;81.07
52745;BME280;38637;49.984;20.426;2023-11-19T06:26:12;99427.63;;;4.81;81.08
52745;BME280;38637;49.984;20.426;2023-11-19T06:28:39;99433.44;;;4.85;81.32
52745;BME280;38637;49.984;20.426;2023-11-19T06:31:04;99440.47;;;4.86;80.80
52745;BME280;38637;49.984;20.426;2023-11-19T06:33:29;99436.97;;;4.86;80.74
52745;BME280;38637;49.984;20.426;2023-11-19T06:35:55;99447.34;;;4.89;81.19
52745;BME280;38637;49.984;20.426;2023-11-19T06:38:20;99452.97;;;4.87;79.79
52745;BME280;38637;49.984;20.426;2023-11-19T06:40:45;99451.31;;;4.86;79.62
52745;BME280;38637;49.984;20.426;2023-11-19T06:43:10;99450.03;;;4.89;80.05
52745;BME280;38637;49.984;20.426;2023-11-19T06:45:36;99454.78;;;4.93;79.83
52745;BME280;38637;49.984;20.426;2023-11-19T06:48:04;99461.84;;;4.94;79.10
52745;BME280;38637;49.984;20.426;2023-11-19T06:50:30;99458.91;;;4.96;78.92
52745;BME280;38637;49.984;20.426;2023-11-19T06:52:55;99457.06;;;4.96;78.90
52745;BME280;38637;49.984;20.426;2023-11-19T06:55:20;99452.03;;;5.00;78.83
52745;BME280;38637;49.984;20.426;2023-11-19T06:57:45;99433.28;;;4.98;78.18
52745;BME280;38637;49.984;20.426;2023-11-19T07:00:11;99433.72;;;4.95;77.25
52745;BME280;38637;49.984;20.426;2023-11-19T07:02:36;99431.03;;;4.95;78.35
52745;BME280;38637;49.984;20.426;2023-11-19T07:05:02;99430.81;;;4.97;77.63
52745;BME280;38637;49.984;20.426;2023-11-19T07:07:30;99426.22;;;4.97;77.10
52745;BME280;38637;49.984;20.426;2023-11-19T07:09:55;99420.81;;;4.97;77.02
52745;BME280;38637;49.984;20.426;2023-11-19T07:12:20;99405.41;;;4.98;76.92
52745;BME280;38637;49.984;20.426;2023-11-19T07:14:45;99395.41;;;4.98;76.84
52745;BME280;38637;49.984;20.426;2023-11-19T07:17:11;99392.25;;;5.01;77.43
52745;BME280;38637;49.984;20.426;2023-11-19T07:19:37;99394.13;;;5.01;77.45
52745;BME280;38637;49.984;20.426;2023-11-19T07:22:03;99380.84;;;4.99;77.57
52745;BME280;38637;49.984;20.426;2023-11-19T07:24:28;99375.44;;;4.99;77.39
52745;BME280;38637;49.984;20.426;2023-11-19T07:26:54;99378.88;;;4.88;77.47
52745;BME280;38637;49.984;20.426;2023-11-19T07:29:19;99369.16;;;4.80;78.14
52745;BME280;38637;49.984;20.426;2023-11-19T07:31:46;99370.91;;;4.75;77.92
52745;BME280;38637;49.984;20.426;2023-11-19T07:34:12;99355.50;;;4.75;77.80
52745;BME280;38637;49.984;20.426;2023-11-19T07:36:39;99350.91;;;4.76;77.71
52745;BME280;38637;49.984;20.426;2023-11-19T07:39:04;99341.28;;;4.80;77.77
52745;BME280;38637;49.984;20.426;2023-11-19T07:41:30;99335.03;;;4.79;77.33
52745;BME280;38637;49.984;20.426;2023-11-19T07:43:55;99348.81;;;4.78;77.64
52745;BME280;38637;49.984;20.426;2023-11-19T07:46:20;99341.66;;;4.83;78.05
52745;BME280;38637;49.984;20.426;2023-11-19T07:48:46;99343.91;;;4.87;77.99
52745;BME280;38637;49.984;20.426;2023-11-19T07:51:14;99338.03;;;4.90;77.48
52745;BME280;38637;49.984;20.426;2023-11-19T07:53:40;99342.78;;;4.94;77.35
52745;BME280;38637;49.984;20.426;2023-11-19T07:56:06;99342.34;;;4.97;77.65
52745;BME280;38637;49.984;20.426;2023-11-19T07:58:31;99345.22;;;5.02;77.32
52745;BME280;38637;49.984;20.426;2023-11-19T08:00:56;99338.28;;;5.06;77.82
52745;BME280;38637;49.984;20.426;2023-11-19T08:03:22;99332.88;;;5.06;76.82
52745;BME280;38637;49.984;20.426;2023-11-19T08:05:47;99327.00;;;5.10;76.65
52745;BME280;38637;49.984;20.426;2023-11-19T08:08:12;99319.94;;;5.09;75.92
52745;BME280;38637;49.984;20.426;2023-11-19T08:10:38;99325.94;;;5.11;75.24
52745;BME280;38637;49.984;20.426;2023-11-19T08:13:04;99320.69;;;5.16;75.90
52745;BME280;38637;49.984;20.426;2023-11-19T08:15:30;99326.81;;;5.23;75.65
52745;BME280;38637;49.984;20.426;2023-11-19T08:17:55;99324.50;;;5.26;75.53
52745;BME280;38637;49.984;20.426;2023-11-19T08:20:20;99321.72;;;5.33;75.85
52745;BME280;38637;49.984;20.426;2023-11-19T08:22:45;99314.56;;;5.39;75.74
52745;BME280;38637;49.984;20.426;2023-11-19T08:25:11;99303.03;;;5.43;74.91
52745;BME280;38637;49.984;20.426;2023-11-19T08:27:36;99297.75;;;5.48;74.62
52745;BME280;38637;49.984;20.426;2023-11-19T08:30:01;99295.41;;;5.52;74.59
52745;BME280;38637;49.984;20.426;2023-11-19T08:32:27;99290.97;;;5.58;73.64
52745;BME280;38637;49.984;20.426;2023-11-19T08:34:52;99299.44;;;5.61;73.94
52745;BME280;38637;49.984;20.426;2023-11-19T08:37:18;99290.84;;;5.64;73.27
52745;BME280;38637;49.984;20.426;2023-11-19T08:39:49;99286.25;;;5.65;72.33
52745;BME280;38637;49.984;20.426;2023-11-19T08:42:14;99277.91;;;5.66;72.37
52745;BME280;38637;49.984;20.426;2023-11-19T08:44:40;99273.31;;;5.67;71.80
52745;BME280;38637;49.984;20.426;2023-11-19T08:47:08;99277.66;;;5.68;72.05
52745;BME280;38637;49.984;20.426;2023-11-19T08:49:34;99276.38;;;5.70;71.41
52745;BME280;38637;49.984;20.426;2023-11-19T08:51:59;99274.50;;;5.71;71.43
52745;BME280;38637;49.984;20.426;2023-11-19T08:54:25;99277.00;;;5.72;70.94
52745;BME280;38637;49.984;20.426;2023-11-19T08:56:50;99281.94;;;5.75;71.23
52745;BME280;38637;49.984;20.426;2023-11-19T08:59:15;99283.13;;;5.80;71.49
52745;BME280;38637;49.984;20.426;2023-11-19T09:01:41;99274.75;;;5.81;70.82
52745;BME280;38637;49.984;20.426;2023-11-19T09:04:06;99270.16;;;5.82;70.54
52745;BME280;38637;49.984;20.426;2023-11-19T09:06:32;99270.16;;;5.82;70.37
52745;BME280;38637;49.984;20.426;2023-11-19T09:08:57;99273.91;;;5.81;69.84
52745;BME280;38637;49.984;20.426;2023-11-19T09:11:25;99269.09;;;5.83;69.98
52745;BME280;38637;49.984;20.426;2023-11-19T09:13:50;99265.94;;;5.86;69.75
52745;BME280;38637;49.984;20.426;2023-11-19T09:16:16;99256.72;;;5.87;69.56
52745;BME280;38637;49.984;20.426;2023-11-19T09:18:41;99252.13;;;5.87;68.85
52745;BME280;38637;49.984;20.426;2023-11-19T09:21:06;99249.41;;;5.87;68.65
52745;BME280;38637;49.984;20.426;2023-11-19T09:23:32;99251.91;;;5.89;68.79
52745;BME280;38637;49.984;20.426;2023-11-19T09:26:01;99245.19;;;5.91;69.25
52745;BME280;38637;49.984;20.426;2023-11-19T09:28:26;99238.28;;;5.95;69.75
52745;BME280;38637;49.984;20.426;2023-11-19T09:30:52;99245.34;;;5.96;68.99
52745;BME280;38637;49.984;20.426;2023-11-19T09:33:17;99243.94;;;5.94;68.08
52745;BME280;38637;49.984;20.426;2023-11-19T09:35:42;99232.03;;;5.95;68.66
52745;BME280;38637;49.984;20.426;2023-11-19T09:38:07;99225.31;;;5.97;68.74
52745;BME280;38637;49.984;20.426;2023-11-19T09:40:32;99216.38;;;5.97;68.22
52745;BME280;38637;49.984;20.426;2023-11-19T09:42:58;99207.38;;;5.96;67.92
52745;BME280;38637;49.984;20.426;2023-11-19T09:45:23;99204.47;;;5.98;68.58
52745;BME280;38637;49.984;20.426;2023-11-19T09:47:50;99194.78;;;6.02;69.56
52745;BME280;38637;49.984;20.426;2023-11-19T09:50:18;99179.13;;;6.04;69.21
52745;BME280;38637;49.984;20.426;2023-11-19T09:52:44;99182.91;;;6.03;68.71
52745;BME280;38637;49.984;20.426;2023-11-19T09:55:09;99170.16;;;6.04;68.60
52745;BME280;38637;49.984;20.426;2023-11-19T09:57:34;99174.53;;;6.05;68.70
52745;BME280;38637;49.984;20.426;2023-11-19T10:00:02;99172.41;;;6.07;69.10
52745;BME280;38637;49.984;20.426;2023-11-19T10:02:30;99167.34;;;6.10;69.48
52745;BME280;38637;49.984;20.426;2023-11-19T10:04:56;99172.75;;;6.10;69.65
52745;BME280;38637;49.984;20.426;2023-11-19T10:07:23;99168.41;;;6.09;68.83
52745;BME280;38637;49.984;20.426;2023-11-19T10:09:49;99154.84;;;6.09;69.04
52745;BME280;38637;49.984;20.426;2023-11-19T10:12:15;99142.69;;;6.12;69.48
52745;BME280;38637;49.984;20.426;2023-11-19T10:14:41;99144.34;;;6.13;69.25
52745;BME280;38637;49.984;20.426;2023-11-19T10:17:07;99154.72;;;6.16;68.79
52745;BME280;38637;49.984;20.426;2023-11-19T10:19:33;99148.81;;;6.19;68.82
52745;BME280;38637;49.984;20.426;2023-11-19T10:22:02;99137.50;;;6.22;69.03
52745;BME280;38637;49.984;20.426;2023-11-19T10:24:32;99134.31;;;6.25;69.03
52745;BME280;38637;49.984;20.426;2023-11-19T10:27:02;99125.91;;;6.27;68.76
52745;BME280;38637;49.984;20.426;2023-11-19T10:29:31;99119.19;;;6.29;68.71
52745;BME280;38637;49.984;20.426;2023-11-19T10:31:56;99124.13;;;6.32;68.80
52745;BME280;38637;49.984;20.426;2023-11-19T10:34:24;99107.66;;;6.34;68.21
52745;BME280;38637;49.984;20.426;2023-11-19T10:36:49;99097.03;;;6.32;67.43
52745;BME280;38637;49.984;20.426;2023-11-19T10:39:14;99087.00;;;6.33;67.51
52745;BME280;38637;49.984;20.426;2023-11-19T10:41:40;99095.25;;;6.38;68.03
52745;BME280;38637;49.984;20.426;2023-11-19T10:44:05;99097.22;;;6.42;68.62
52745;BME280;38637;49.984;20.426;2023-11-19T10:46:40;99101.94;;;6.47;68.97
52745;BME280;38637;49.984;20.426;2023-11-19T10:49:06;99094.94;;;6.51;68.19
52745;BME280;38637;49.984;20.426;2023-11-19T10:51:32;99081.72;;;6.55;68.42
52745;BME280;38637;49.984;20.426;2023-11-19T10:54:06;99073.94;;;6.58;68.83
52745;BME280;38637;49.984;20.426;2023-11-19T10:56:32;99065.31;;;6.61;68.63
52745;BME280;38637;49.984;20.426;2023-11-19T10:58:58;99070.47;;;6.63;68.29
52745;BME280;38637;49.984;20.426;2023-11-19T11:01:24;99062.94;;;6.65;68.53
52745;BME280;38637;49.984;20.426;2023-11-19T11:03:51;99054.31;;;6.68;68.70
52745;BME280;38637;49.984;20.426;2023-11-19T11:06:19;99039.66;;;6.69;68.41
52745;BME280;38637;49.984;20.426;2023-11-19T11:08:44;99042.16;;;6.71;68.75
52745;BME280;38637;49.984;20.426;2023-11-19T11:11:11;99045.19;;;6.74;68.76
52745;BME280;38637;49.984;20.426;2023-11-19T11:13:38;99021.81;;;6.73;68.46
52745;BME280;38637;49.984;20.426;2023-11-19T11:16:07;99033.03;;;6.77;68.46
52745;BME280;38637;49.984;20.426;2023-11-19T11:18:32;99012.13;;;6.77;68.17
52745;BME280;38637;49.984;20.426;2023-11-19T11:21:00;99011.88;;;6.79;67.96
52745;BME280;38637;49.984;20.426;2023-11-19T11:28:35;98991.47;;;6.76;67.74
52745;BME280;38637;49.984;20.426;2023-11-19T11:36:20;98968.41;;;6.74;68.03
52745;BME280;38637;49.984;20.426;2023-11-19T11:38:47;98961.06;;;6.74;68.06
52745;BME280;38637;49.984;20.426;2023-11-19T11:41:20;98967.91;;;6.77;68.67
52745;BME280;38637;49.984;20.426;2023-11-19T11:49:04;98957.06;;;6.77;68.33
52745;BME280;38637;49.984;20.426;2023-11-19T11:54:07;98945.13;;;6.78;68.61
52745;BME280;38637;49.984;20.426;2023-11-19T11:56:33;98939.44;;;6.79;69.40
52745;BME280;38637;49.984;20.426;2023-11-19T11:58:59;98931.28;;;6.79;69.15
52745;BME280;38637;49.984;20.426;2023-11-19T12:01:25;98925.03;;;6.79;68.95
52745;BME280;38637;49.984;20.426;2023-11-19T12:03:55;98913.38;;;6.78;69.16
52745;BME280;38637;49.984;20.426;2023-11-19T12:06:21;98905.81;;;6.80;69.34
52745;BME280;38637;49.984;20.426;2023-11-19T12:08:46;98906.88;;;6.79;69.67
52745;BME280;38637;49.984;20.426;2023-11-19T12:11:12;98913.69;;;6.82;70.19
52745;BME280;38637;49.984;20.426;2023-11-19T12:13:47;98915.59;;;6.81;69.90
52745;BME280;38637;49.984;20.426;2023-11-19T12:16:15;98914.78;;;6.81;69.58
52745;BME280;38637;49.984;20.426;2023-11-19T12:18:41;98924.22;;;6.78;69.73
52745;BME280;38637;49.984;20.426;2023-11-19T12:21:06;98918.56;;;6.80;70.17
52745;BME280;38637;49.984;20.426;2023-11-19T12:23:34;98906.88;;;6.79;70.95
52745;BME280;38637;49.984;20.426;2023-11-19T12:25:59;98892.47;;;6.79;70.45
52745;BME280;38637;49.984;20.426;2023-11-19T12:28:25;98897.09;;;6.78;70.80
52745;BME280;38637;49.984;20.426;2023-11-19T12:30:52;98904.16;;;6.79;71.50
52745;BME280;38637;49.984;20.426;2023-11-19T12:33:18;98906.50;;;6.71;71.68
52745;BME280;38637;49.984;20.426;2023-11-19T12:35:45;98898.50;;;6.64;72.67
52745;BME280;38637;49.984;20.426;2023-11-19T12:38:20;98891.34;;;6.58;73.57
52745;BME280;38637;49.984;20.426;2023-11-19T12:40:46;98887.50;;;6.54;74.58
52745;BME280;38637;49.984;20.426;2023-11-19T12:43:11;98879.25;;;6.49;74.88
52745;BME280;38637;49.984;20.426;2023-11-19T12:45:46;98878.38;;;6.43;75.60
52745;BME280;38637;49.984;20.426;2023-11-19T12:48:11;98871.56;;;6.40;76.22
52745;BME280;38637;49.984;20.426;2023-11-19T12:50:55;98868.25;;;6.38;76.76
52745;BME280;38637;49.984;20.426;2023-11-19T12:53:22;98870.38;;;6.36;76.87
52745;BME280;38637;49.984;20.426;2023-11-19T12:55:48;98865.47;;;6.33;77.32
52745;BME280;38637;49.984;20.426;2023-11-19T12:58:33;98858.16;;;6.34;77.40
52745;BME280;38637;49.984;20.426;2023-11-19T13:00:59;98856.50;;;6.33;77.83
52745;BME280;38637;49.984;20.426;2023-11-19T13:03:29;98855.69;;;6.32;77.84
52745;BME280;38637;49.984;20.426;2023-11-19T13:06:00;98853.47;;;6.29;78.13
52745;BME280;38637;49.984;20.426;2023-11-19T13:08:26;98849.13;;;6.28;78.89
52745;BME280;38637;49.984;20.426;2023-11-19T13:10:51;98850.66;;;6.24;79.18
52745;BME280;38637;49.984;20.426;2023-11-19T13:13:18;98848.44;;;6.21;79.28